sensor_id;sensor_type;location;lat;lon;timestamp;temperature;humidity
1702;DHT22;848;48.354;10.064;2023-03-12T00:00:07;0.30;99.90
1702;DHT22;848;48.354;10.064;2023-03-12T00:02:35;0.30;99.90
1702;DHT22;848;48.354;10.064;2023-03-12T00:05:03;0.30;99.90
1702;DHT22;848;48.354;10.064;2023-03-12T00:07:30;0.30;99.90
1702;DHT22;848;48.354;10.064;2023-03-12T00:10:01;0.30;99.90
1702;DHT22;848;48.354;10.064;2023-03-12T00:12:28;0.30;99.90
1702;DHT22;848;48.354;10.064;2023-03-12T00:14:56;0.20;99.90
1702;DHT22;848;48.354;10.064;2023-03-12T00:17:23;0.30;99.90
1702;DHT22;848;48.354;10.064;2023-03-12T00:19:50;0.20;99.90
1702;DHT22;848;48.354;10.064;2023-03-12T00:22:17;0.20;99.90
1702;DHT22;848;48.354;10.064;2023-03-12T00:24:49;0.10;99.90
1702;DHT22;848;48.354;10.064;2023-03-12T00:27:16;0.00;99.90
1702;DHT22;848;48.354;10.064;2023-03-12T00:29:43;0.00;99.90
1702;DHT22;848;48.354;10.064;2023-03-12T00:32:11;-0.10;99.90
1702;DHT22;848;48.354;10.064;2023-03-12T00:34:38;0.00;99.90
1702;DHT22;848;48.354;10.064;2023-03-12T00:37:05;-0.10;99.90
1702;DHT22;848;48.354;10.064;2023-03-12T00:39:34;-0.30;99.90
1702;DHT22;848;48.354;10.064;2023-03-12T00:42:01;-0.30;99.90
1702;DHT22;848;48.354;10.064;2023-03-12T00:44:28;-0.20;99.90
1702;DHT22;848;48.354;10.064;2023-03-12T00:46:55;-0.20;99.90
1702;DHT22;848;48.354;10.064;2023-03-12T00:49:23;-0.10;99.90
1702;DHT22;848;48.354;10.064;2023-03-12T00:51:52;-0.10;99.90
1702;DHT22;848;48.354;10.064;2023-03-12T00:54:19;-0.10;99.90
1702;DHT22;848;48.354;10.064;2023-03-12T00:56:46;-0.10;99.90
1702;DHT22;848;48.354;10.064;2023-03-12T00:59:14;-0.10;99.90
1702;DHT22;848;48.354;10.064;2023-03-12T01:01:41;-0.10;99.90
1702;DHT22;848;48.354;10.064;2023-03-12T01:04:09;-0.10;99.90
1702;DHT22;848;48.354;10.064;2023-03-12T01:06:37;-0.10;99.90
1702;DHT22;848;48.354;10.064;2023-03-12T01:09:06;-0.20;99.90
1702;DHT22;848;48.354;10.064;2023-03-12T01:11:34;-0.20;99.90
1702;DHT22;848;48.354;10.064;2023-03-12T01:14:02;-0.40;99.90
1702;DHT22;848;48.354;10.064;2023-03-12T01:16:29;-0.40;99.90
1702;DHT22;848;48.354;10.064;2023-03-12T01:18:57;-0.30;99.90
1702;DHT22;848;48.354;10.064;2023-03-12T01:21:25;-0.20;99.90
1702;DHT22;848;48.354;10.064;2023-03-12T01:23:54;-0.20;99.90
1702;DHT22;848;48.354;10.064;2023-03-12T01:26:21;-0.20;99.90
1702;DHT22;848;48.354;10.064;2023-03-12T01:28:48;-0.20;99.90
1702;DHT22;848;48.354;10.064;2023-03-12T01:31:17;-0.20;99.90
1702;DHT22;848;48.354;10.064;2023-03-12T01:33:47;-0.20;99.90
1702;DHT22;848;48.354;10.064;2023-03-12T01:36:16;-0.20;99.90
1702;DHT22;848;48.354;10.064;2023-03-12T01:38:43;-0.20;99.90
1702;DHT22;848;48.354;10.064;2023-03-12T01:41:12;-0.20;99.90
1702;DHT22;848;48.354;10.064;2023-03-12T01:43:39;-0.20;99.90
1702;DHT22;848;48.354;10.064;2023-03-12T01:46:20;-0.20;99.90
1702;DHT22;848;48.354;10.064;2023-03-12T01:48:52;-0.10;99.90
1702;DHT22;848;48.354;10.064;2023-03-12T01:51:21;-0.30;99.90
1702;DHT22;848;48.354;10.064;2023-03-12T01:53:50;-0.30;99.90
1702;DHT22;848;48.354;10.064;2023-03-12T01:56:21;-0.30;99.90
1702;DHT22;848;48.354;10.064;2023-03-12T01:58:53;-0.30;99.90
1702;DHT22;848;48.354;10.064;2023-03-12T02:01:22;-0.20;99.90
1702;DHT22;848;48.354;10.064;2023-03-12T02:03:51;-0.30;99.90
1702;DHT22;848;48.354;10.064;2023-03-12T02:06:24;-0.30;99.90
1702;DHT22;848;48.354;10.064;2023-03-12T02:08:52;-0.30;99.90
1702;DHT22;848;48.354;10.064;2023-03-12T02:11:21;-0.20;99.90
1702;DHT22;848;48.354;10.064;2023-03-12T02:13:48;-0.10;99.90
1702;DHT22;848;48.354;10.064;2023-03-12T02:16:15;0.00;99.90
1702;DHT22;848;48.354;10.064;2023-03-12T02:18:45;0.10;99.90
1702;DHT22;848;48.354;10.064;2023-03-12T02:21:14;0.10;99.90
1702;DHT22;848;48.354;10.064;2023-03-12T02:23:51;0.20;99.90
1702;DHT22;848;48.354;10.064;2023-03-12T02:26:23;0.20;99.90
1702;DHT22;848;48.354;10.064;2023-03-12T02:28:52;0.40;99.90
1702;DHT22;848;48.354;10.064;2023-03-12T02:31:23;0.50;99.90
1702;DHT22;848;48.354;10.064;2023-03-12T02:33:51;0.60;99.90
1702;DHT22;848;48.354;10.064;2023-03-12T02:36:20;0.60;99.90
1702;DHT22;848;48.354;10.064;2023-03-12T02:38:48;0.60;99.90
1702;DHT22;848;48.354;10.064;2023-03-12T02:41:17;0.70;99.90
1702;DHT22;848;48.354;10.064;2023-03-12T02:43:48;0.70;99.90
1702;DHT22;848;48.354;10.064;2023-03-12T02:46:19;0.80;99.90
1702;DHT22;848;48.354;10.064;2023-03-12T02:48:46;0.80;99.90
1702;DHT22;848;48.354;10.064;2023-03-12T02:51:13;0.90;99.90
1702;DHT22;848;48.354;10.064;2023-03-12T02:53:40;0.80;99.90
1702;DHT22;848;48.354;10.064;2023-03-12T02:56:07;0.80;99.90
1702;DHT22;848;48.354;10.064;2023-03-12T02:58:35;0.80;99.90
1702;DHT22;848;48.354;10.064;2023-03-12T03:01:03;0.80;99.90
1702;DHT22;848;48.354;10.064;2023-03-12T03:03:30;0.90;99.90
1702;DHT22;848;48.354;10.064;2023-03-12T03:05:57;0.90;99.90
1702;DHT22;848;48.354;10.064;2023-03-12T03:08:24;1.00;99.90
1702;DHT22;848;48.354;10.064;2023-03-12T03:10:51;1.00;99.90
1702;DHT22;848;48.354;10.064;2023-03-12T03:13:18;1.10;99.90
1702;DHT22;848;48.354;10.064;2023-03-12T03:15:45;1.10;99.90
1702;DHT22;848;48.354;10.064;2023-03-12T03:18:14;1.20;99.90
1702;DHT22;848;48.354;10.064;2023-03-12T03:20:40;1.20;99.90
1702;DHT22;848;48.354;10.064;2023-03-12T03:23:08;1.30;99.90
1702;DHT22;848;48.354;10.064;2023-03-12T03:25:36;1.40;99.90
1702;DHT22;848;48.354;10.064;2023-03-12T03:28:03;1.50;99.90
1702;DHT22;848;48.354;10.064;2023-03-12T03:30:30;1.60;99.90
1702;DHT22;848;48.354;10.064;2023-03-12T03:32:57;1.70;99.90
1702;DHT22;848;48.354;10.064;2023-03-12T03:35:25;1.70;99.90
1702;DHT22;848;48.354;10.064;2023-03-12T03:37:52;1.70;99.90
1702;DHT22;848;48.354;10.064;2023-03-12T03:40:19;1.90;99.90
1702;DHT22;848;48.354;10.064;2023-03-12T03:42:46;1.80;99.90
1702;DHT22;848;48.354;10.064;2023-03-12T03:45:14;1.80;99.90
1702;DHT22;848;48.354;10.064;2023-03-12T03:47:42;1.90;99.90
1702;DHT22;848;48.354;10.064;2023-03-12T03:50:10;2.00;99.90
1702;DHT22;848;48.354;10.064;2023-03-12T03:52:38;2.00;99.90
1702;DHT22;848;48.354;10.064;2023-03-12T03:55:06;2.00;99.90
1702;DHT22;848;48.354;10.064;2023-03-12T03:57:33;2.00;99.90
1702;DHT22;848;48.354;10.064;2023-03-12T04:00:00;2.10;99.90
1702;DHT22;848;48.354;10.064;2023-03-12T04:02:27;2.10;99.90
1702;DHT22;848;48.354;10.064;2023-03-12T04:04:56;2.20;99.90
1702;DHT22;848;48.354;10.064;2023-03-12T04:07:23;2.20;99.90
1702;DHT22;848;48.354;10.064;2023-03-12T04:09:52;2.20;99.90
1702;DHT22;848;48.354;10.064;2023-03-12T04:12:19;2.30;99.90
1702;DHT22;848;48.354;10.064;2023-03-12T04:14:46;2.30;99.90
1702;DHT22;848;48.354;10.064;2023-03-12T04:17:13;2.40;99.90
1702;DHT22;848;48.354;10.064;2023-03-12T04:19:40;2.40;99.90
1702;DHT22;848;48.354;10.064;2023-03-12T04:22:07;2.60;99.90
1702;DHT22;848;48.354;10.064;2023-03-12T04:24:34;2.40;99.90
1702;DHT22;848;48.354;10.064;2023-03-12T04:27:02;2.30;99.90
1702;DHT22;848;48.354;10.064;2023-03-12T04:29:29;2.30;99.90
1702;DHT22;848;48.354;10.064;2023-03-12T04:31:56;2.30;99.90
1702;DHT22;848;48.354;10.064;2023-03-12T04:34:25;2.40;99.90
1702;DHT22;848;48.354;10.064;2023-03-12T04:36:52;2.30;99.90
1702;DHT22;848;48.354;10.064;2023-03-12T04:39:19;2.30;99.90
1702;DHT22;848;48.354;10.064;2023-03-12T04:41:46;2.40;99.90
1702;DHT22;848;48.354;10.064;2023-03-12T04:44:14;2.40;99.90
1702;DHT22;848;48.354;10.064;2023-03-12T04:46:42;2.40;99.90
1702;DHT22;848;48.354;10.064;2023-03-12T04:49:09;2.40;99.90
1702;DHT22;848;48.354;10.064;2023-03-12T04:51:36;2.40;99.90
1702;DHT22;848;48.354;10.064;2023-03-12T04:54:03;2.50;99.90
1702;DHT22;848;48.354;10.064;2023-03-12T04:56:30;2.50;99.90
1702;DHT22;848;48.354;10.064;2023-03-12T04:58:57;2.50;99.90
1702;DHT22;848;48.354;10.064;2023-03-12T05:01:27;2.40;99.90
1702;DHT22;848;48.354;10.064;2023-03-12T05:03:55;2.50;99.90
1702;DHT22;848;48.354;10.064;2023-03-12T05:06:23;2.50;99.90
1702;DHT22;848;48.354;10.064;2023-03-12T05:08:51;2.50;99.90
1702;DHT22;848;48.354;10.064;2023-03-12T05:11:18;2.60;99.90
1702;DHT22;848;48.354;10.064;2023-03-12T05:13:45;2.50;99.90
1702;DHT22;848;48.354;10.064;2023-03-12T05:16:13;2.60;99.90
1702;DHT22;848;48.354;10.064;2023-03-12T05:18:42;2.60;99.90
1702;DHT22;848;48.354;10.064;2023-03-12T05:21:12;2.50;99.90
1702;DHT22;848;48.354;10.064;2023-03-12T05:23:40;2.60;99.90
1702;DHT22;848;48.354;10.064;2023-03-12T05:26:13;2.60;99.90
1702;DHT22;848;48.354;10.064;2023-03-12T05:28:41;2.70;99.90
1702;DHT22;848;48.354;10.064;2023-03-12T05:31:09;2.90;99.90
1702;DHT22;848;48.354;10.064;2023-03-12T05:33:36;2.60;99.90
1702;DHT22;848;48.354;10.064;2023-03-12T05:36:06;2.60;99.90
1702;DHT22;848;48.354;10.064;2023-03-12T05:38:33;2.60;99.90
1702;DHT22;848;48.354;10.064;2023-03-12T05:41:00;2.60;99.90
1702;DHT22;848;48.354;10.064;2023-03-12T05:43:27;2.60;99.90
1702;DHT22;848;48.354;10.064;2023-03-12T05:45:57;2.60;99.90
1702;DHT22;848;48.354;10.064;2023-03-12T05:48:24;2.90;99.90
1702;DHT22;848;48.354;10.064;2023-03-12T05:50:51;2.70;99.90
1702;DHT22;848;48.354;10.064;2023-03-12T05:53:19;2.80;99.90
1702;DHT22;848;48.354;10.064;2023-03-12T05:55:46;2.80;99.90
1702;DHT22;848;48.354;10.064;2023-03-12T05:58:13;2.80;99.90
1702;DHT22;848;48.354;10.064;2023-03-12T06:00:41;2.80;99.90
1702;DHT22;848;48.354;10.064;2023-03-12T06:03:09;2.80;99.90
1702;DHT22;848;48.354;10.064;2023-03-12T06:05:36;2.90;99.90
1702;DHT22;848;48.354;10.064;2023-03-12T06:08:04;2.90;99.90
1702;DHT22;848;48.354;10.064;2023-03-12T06:10:37;2.80;99.90
1702;DHT22;848;48.354;10.064;2023-03-12T06:13:04;2.70;99.90
1702;DHT22;848;48.354;10.064;2023-03-12T06:15:32;2.70;99.90
1702;DHT22;848;48.354;10.064;2023-03-12T06:18:00;2.70;99.90
1702;DHT22;848;48.354;10.064;2023-03-12T06:20:27;2.70;99.90
1702;DHT22;848;48.354;10.064;2023-03-12T06:22:54;2.80;99.90
1702;DHT22;848;48.354;10.064;2023-03-12T06:25:21;3.00;99.90
1702;DHT22;848;48.354;10.064;2023-03-12T06:27:49;3.10;99.90
1702;DHT22;848;48.354;10.064;2023-03-12T06:30:16;3.40;99.90
1702;DHT22;848;48.354;10.064;2023-03-12T06:32:43;3.20;99.90
1702;DHT22;848;48.354;10.064;2023-03-12T06:35:10;3.30;99.90
1702;DHT22;848;48.354;10.064;2023-03-12T06:37:37;3.40;99.90
1702;DHT22;848;48.354;10.064;2023-03-12T06:40:05;3.50;99.90
1702;DHT22;848;48.354;10.064;2023-03-12T06:42:35;3.50;99.90
1702;DHT22;848;48.354;10.064;2023-03-12T06:45:06;3.50;99.90
1702;DHT22;848;48.354;10.064;2023-03-12T06:47:33;3.50;99.90
1702;DHT22;848;48.354;10.064;2023-03-12T06:50:00;3.50;99.90
1702;DHT22;848;48.354;10.064;2023-03-12T06:52:27;3.40;99.90
1702;DHT22;848;48.354;10.064;2023-03-12T06:54:54;3.40;99.90
1702;DHT22;848;48.354;10.064;2023-03-12T06:57:20;3.50;99.90
1702;DHT22;848;48.354;10.064;2023-03-12T06:59:47;3.60;99.90
1702;DHT22;848;48.354;10.064;2023-03-12T07:02:16;3.60;99.90
1702;DHT22;848;48.354;10.064;2023-03-12T07:04:43;3.60;99.90
1702;DHT22;848;48.354;10.064;2023-03-12T07:07:10;3.60;99.90
1702;DHT22;848;48.354;10.064;2023-03-12T07:09:37;3.50;99.90
1702;DHT22;848;48.354;10.064;2023-03-12T07:12:04;3.80;99.90
1702;DHT22;848;48.354;10.064;2023-03-12T07:14:31;3.60;99.90
1702;DHT22;848;48.354;10.064;2023-03-12T07:16:58;3.60;99.90
1702;DHT22;848;48.354;10.064;2023-03-12T07:19:27;3.40;99.90
1702;DHT22;848;48.354;10.064;2023-03-12T07:21:55;3.40;99.90
1702;DHT22;848;48.354;10.064;2023-03-12T07:24:22;3.50;99.90
1702;DHT22;848;48.354;10.064;2023-03-12T07:26:49;3.50;99.90
1702;DHT22;848;48.354;10.064;2023-03-12T07:29:16;3.60;99.90
1702;DHT22;848;48.354;10.064;2023-03-12T07:31:43;3.60;99.90
1702;DHT22;848;48.354;10.064;2023-03-12T07:34:10;3.60;99.90
1702;DHT22;848;48.354;10.064;2023-03-12T07:36:38;3.70;99.90
1702;DHT22;848;48.354;10.064;2023-03-12T07:39:05;3.70;99.90
1702;DHT22;848;48.354;10.064;2023-03-12T07:41:33;3.70;99.90
1702;DHT22;848;48.354;10.064;2023-03-12T07:44:02;3.80;99.90
1702;DHT22;848;48.354;10.064;2023-03-12T07:46:28;3.80;99.90
1702;DHT22;848;48.354;10.064;2023-03-12T07:48:56;3.80;99.90
1702;DHT22;848;48.354;10.064;2023-03-12T07:51:23;3.90;99.90
1702;DHT22;848;48.354;10.064;2023-03-12T07:53:51;3.90;99.90
1702;DHT22;848;48.354;10.064;2023-03-12T07:56:18;3.90;99.90
1702;DHT22;848;48.354;10.064;2023-03-12T07:58:45;4.00;99.90
1702;DHT22;848;48.354;10.064;2023-03-12T08:01:12;4.20;99.90
1702;DHT22;848;48.354;10.064;2023-03-12T08:03:39;4.10;99.90
1702;DHT22;848;48.354;10.064;2023-03-12T08:06:06;4.20;99.90
1702;DHT22;848;48.354;10.064;2023-03-12T08:08:33;4.20;99.90
1702;DHT22;848;48.354;10.064;2023-03-12T08:11:03;4.30;99.90
1702;DHT22;848;48.354;10.064;2023-03-12T08:13:30;4.30;99.90
1702;DHT22;848;48.354;10.064;2023-03-12T08:15:57;4.30;99.90
1702;DHT22;848;48.354;10.064;2023-03-12T08:18:24;4.50;99.90
1702;DHT22;848;48.354;10.064;2023-03-12T08:20:51;4.50;99.90
1702;DHT22;848;48.354;10.064;2023-03-12T08:23:18;4.50;99.90
1702;DHT22;848;48.354;10.064;2023-03-12T08:25:45;4.50;99.90
1702;DHT22;848;48.354;10.064;2023-03-12T08:28:14;4.50;99.90
1702;DHT22;848;48.354;10.064;2023-03-12T08:30:45;4.50;99.90
1702;DHT22;848;48.354;10.064;2023-03-12T08:33:12;4.50;99.90
1702;DHT22;848;48.354;10.064;2023-03-12T08:35:39;4.40;99.90
1702;DHT22;848;48.354;10.064;2023-03-12T08:38:06;4.30;99.90
1702;DHT22;848;48.354;10.064;2023-03-12T08:40:33;4.40;99.90
1702;DHT22;848;48.354;10.064;2023-03-12T08:43:00;4.30;99.90
1702;DHT22;848;48.354;10.064;2023-03-12T08:45:28;4.40;99.90
1702;DHT22;848;48.354;10.064;2023-03-12T08:47:56;4.40;99.90
1702;DHT22;848;48.354;10.064;2023-03-12T08:50:23;4.30;99.90
1702;DHT22;848;48.354;10.064;2023-03-12T08:52:53;4.50;99.90
1702;DHT22;848;48.354;10.064;2023-03-12T08:55:20;4.60;99.90
1702;DHT22;848;48.354;10.064;2023-03-12T08:57:47;4.60;99.90
1702;DHT22;848;48.354;10.064;2023-03-12T09:00:15;4.70;99.90
1702;DHT22;848;48.354;10.064;2023-03-12T09:02:45;4.80;99.90
1702;DHT22;848;48.354;10.064;2023-03-12T09:05:12;4.90;99.90
1702;DHT22;848;48.354;10.064;2023-03-12T09:07:40;4.90;99.90
1702;DHT22;848;48.354;10.064;2023-03-12T09:10:07;4.90;99.90
1702;DHT22;848;48.354;10.064;2023-03-12T09:12:34;4.80;99.90
1702;DHT22;848;48.354;10.064;2023-03-12T09:15:02;4.90;99.90
1702;DHT22;848;48.354;10.064;2023-03-12T09:17:29;5.00;99.90
1702;DHT22;848;48.354;10.064;2023-03-12T09:19:57;5.10;99.90
1702;DHT22;848;48.354;10.064;2023-03-12T09:22:25;5.10;99.90
1702;DHT22;848;48.354;10.064;2023-03-12T09:24:52;5.20;99.90
1702;DHT22;848;48.354;10.064;2023-03-12T09:27:19;5.20;99.90
1702;DHT22;848;48.354;10.064;2023-03-12T09:29:45;5.40;99.90
1702;DHT22;848;48.354;10.064;2023-03-12T09:32:13;5.60;99.90
1702;DHT22;848;48.354;10.064;2023-03-12T09:34:41;5.70;99.90
1702;DHT22;848;48.354;10.064;2023-03-12T09:37:09;5.70;99.90
1702;DHT22;848;48.354;10.064;2023-03-12T09:39:36;5.70;99.90
1702;DHT22;848;48.354;10.064;2023-03-12T09:42:04;5.90;99.90
1702;DHT22;848;48.354;10.064;2023-03-12T09:44:35;6.00;99.90
1702;DHT22;848;48.354;10.064;2023-03-12T09:47:09;6.00;99.90
1702;DHT22;848;48.354;10.064;2023-03-12T09:49:42;5.90;99.90
1702;DHT22;848;48.354;10.064;2023-03-12T09:52:23;5.90;99.90
1702;DHT22;848;48.354;10.064;2023-03-12T09:54:55;5.90;99.90
1702;DHT22;848;48.354;10.064;2023-03-12T09:57:26;6.00;99.90
1702;DHT22;848;48.354;10.064;2023-03-12T09:59:55;6.10;99.90
1702;DHT22;848;48.354;10.064;2023-03-12T10:02:43;6.20;99.90
1702;DHT22;848;48.354;10.064;2023-03-12T10:05:17;6.30;99.90
1702;DHT22;848;48.354;10.064;2023-03-12T10:07:56;6.40;99.90
1702;DHT22;848;48.354;10.064;2023-03-12T10:10:33;6.60;99.90
1702;DHT22;848;48.354;10.064;2023-03-12T10:13:23;6.60;99.90
1702;DHT22;848;48.354;10.064;2023-03-12T10:16:04;6.70;99.90
1702;DHT22;848;48.354;10.064;2023-03-12T10:18:57;6.80;99.90
1702;DHT22;848;48.354;10.064;2023-03-12T10:21:33;6.90;99.90
1702;DHT22;848;48.354;10.064;2023-03-12T10:24:16;7.10;99.90
1702;DHT22;848;48.354;10.064;2023-03-12T10:26:48;7.10;99.90
1702;DHT22;848;48.354;10.064;2023-03-12T10:29:17;7.20;99.90
1702;DHT22;848;48.354;10.064;2023-03-12T10:31:52;7.20;99.90
1702;DHT22;848;48.354;10.064;2023-03-12T10:34:24;7.30;99.90
1702;DHT22;848;48.354;10.064;2023-03-12T10:36:58;7.30;99.90
1702;DHT22;848;48.354;10.064;2023-03-12T10:39:27;7.40;99.90
1702;DHT22;848;48.354;10.064;2023-03-12T10:41:54;7.50;99.90
1702;DHT22;848;48.354;10.064;2023-03-12T10:44:23;7.60;99.90
1702;DHT22;848;48.354;10.064;2023-03-12T10:47:05;7.60;99.90
1702;DHT22;848;48.354;10.064;2023-03-12T10:49:33;7.60;99.90
1702;DHT22;848;48.354;10.064;2023-03-12T10:52:04;7.70;99.90
1702;DHT22;848;48.354;10.064;2023-03-12T10:54:34;7.80;99.90
1702;DHT22;848;48.354;10.064;2023-03-12T10:57:03;7.80;99.90
1702;DHT22;848;48.354;10.064;2023-03-12T10:59:32;7.80;99.90
1702;DHT22;848;48.354;10.064;2023-03-12T11:02:01;7.80;99.90
1702;DHT22;848;48.354;10.064;2023-03-12T11:04:30;8.00;99.90
1702;DHT22;848;48.354;10.064;2023-03-12T11:07:17;8.20;99.90
1702;DHT22;848;48.354;10.064;2023-03-12T11:09:45;8.30;99.90
1702;DHT22;848;48.354;10.064;2023-03-12T11:12:29;8.40;99.90
1702;DHT22;848;48.354;10.064;2023-03-12T11:14:57;8.50;99.90
1702;DHT22;848;48.354;10.064;2023-03-12T11:17:25;8.60;99.90
1702;DHT22;848;48.354;10.064;2023-03-12T11:19:52;8.70;99.90
1702;DHT22;848;48.354;10.064;2023-03-12T11:22:28;8.80;99.90
1702;DHT22;848;48.354;10.064;2023-03-12T11:24:59;8.90;99.90
1702;DHT22;848;48.354;10.064;2023-03-12T11:27:39;9.00;99.90
1702;DHT22;848;48.354;10.064;2023-03-12T11:30:10;9.10;99.90
1702;DHT22;848;48.354;10.064;2023-03-12T11:32:41;9.30;99.90
1702;DHT22;848;48.354;10.064;2023-03-12T11:35:10;9.70;99.90
1702;DHT22;848;48.354;10.064;2023-03-12T11:37:51;9.60;99.90
1702;DHT22;848;48.354;10.064;2023-03-12T11:40:36;9.30;99.90
1702;DHT22;848;48.354;10.064;2023-03-12T11:43:25;9.40;99.90
1702;DHT22;848;48.354;10.064;2023-03-12T11:46:06;9.50;99.90
1702;DHT22;848;48.354;10.064;2023-03-12T11:48:40;9.60;99.90
1702;DHT22;848;48.354;10.064;2023-03-12T11:51:21;9.80;99.90
1702;DHT22;848;48.354;10.064;2023-03-12T11:56:58;9.80;99.90
1702;DHT22;848;48.354;10.064;2023-03-12T11:59:42;10.00;99.90
1702;DHT22;848;48.354;10.064;2023-03-12T12:02:28;10.10;99.90
1702;DHT22;848;48.354;10.064;2023-03-12T12:05:09;10.10;99.90
1702;DHT22;848;48.354;10.064;2023-03-12T12:07:52;10.20;99.90
1702;DHT22;848;48.354;10.064;2023-03-12T12:10:26;10.20;99.90
1702;DHT22;848;48.354;10.064;2023-03-12T12:13:03;10.30;99.90
1702;DHT22;848;48.354;10.064;2023-03-12T12:15:37;10.40;99.90
1702;DHT22;848;48.354;10.064;2023-03-12T12:18:23;10.40;99.90
1702;DHT22;848;48.354;10.064;2023-03-12T12:20:57;10.00;99.90
1702;DHT22;848;48.354;10.064;2023-03-12T12:23:36;9.90;99.90
1702;DHT22;848;48.354;10.064;2023-03-12T12:26:09;9.90;99.90
1702;DHT22;848;48.354;10.064;2023-03-12T12:31:47;10.30;99.90
1702;DHT22;848;48.354;10.064;2023-03-12T12:34:30;10.40;99.90
1702;DHT22;848;48.354;10.064;2023-03-12T12:37:17;10.30;99.90
1702;DHT22;848;48.354;10.064;2023-03-12T12:39:49;10.30;99.90
1702;DHT22;848;48.354;10.064;2023-03-12T12:42:22;10.20;99.90
1702;DHT22;848;48.354;10.064;2023-03-12T12:44:54;10.30;99.90
1702;DHT22;848;48.354;10.064;2023-03-12T12:47:33;10.30;99.90
1702;DHT22;848;48.354;10.064;2023-03-12T12:50:02;10.10;99.90
1702;DHT22;848;48.354;10.064;2023-03-12T12:52:30;10.00;99.90
1702;DHT22;848;48.354;10.064;2023-03-12T12:55:02;10.10;99.90
1702;DHT22;848;48.354;10.064;2023-03-12T12:57:36;10.10;99.90
1702;DHT22;848;48.354;10.064;2023-03-12T13:00:18;10.10;99.90
1702;DHT22;848;48.354;10.064;2023-03-12T13:02:47;10.00;99.90
1702;DHT22;848;48.354;10.064;2023-03-12T13:05:20;9.80;99.90
1702;DHT22;848;48.354;10.064;2023-03-12T13:07:47;9.80;99.90
1702;DHT22;848;48.354;10.064;2023-03-12T13:10:37;9.90;99.90
1702;DHT22;848;48.354;10.064;2023-03-12T13:13:09;10.30;99.90
1702;DHT22;848;48.354;10.064;2023-03-12T13:15:39;10.50;99.90
1702;DHT22;848;48.354;10.064;2023-03-12T13:18:17;10.40;99.90
1702;DHT22;848;48.354;10.064;2023-03-12T13:21:00;10.50;99.90
1702;DHT22;848;48.354;10.064;2023-03-12T13:23:35;10.60;99.90
1702;DHT22;848;48.354;10.064;2023-03-12T13:26:07;10.80;99.90
1702;DHT22;848;48.354;10.064;2023-03-12T13:28:55;10.80;99.90
1702;DHT22;848;48.354;10.064;2023-03-12T13:31:38;10.80;99.90
1702;DHT22;848;48.354;10.064;2023-03-12T13:34:31;10.80;99.90
1702;DHT22;848;48.354;10.064;2023-03-12T13:37:18;10.90;99.90
1702;DHT22;848;48.354;10.064;2023-03-12T13:39:45;10.90;99.90
1702;DHT22;848;48.354;10.064;2023-03-12T13:42:35;11.00;99.90
1702;DHT22;848;48.354;10.064;2023-03-12T13:45:29;11.00;99.90
1702;DHT22;848;48.354;10.064;2023-03-12T13:48:00;11.10;99.90
1702;DHT22;848;48.354;10.064;2023-03-12T13:50:29;11.00;99.90
1702;DHT22;848;48.354;10.064;2023-03-12T13:53:02;10.70;99.90
1702;DHT22;848;48.354;10.064;2023-03-12T13:55:31;10.70;99.90
1702;DHT22;848;48.354;10.064;2023-03-12T13:58:05;10.70;99.90
1702;DHT22;848;48.354;10.064;2023-03-12T14:00:37;10.80;99.90
1702;DHT22;848;48.354;10.064;2023-03-12T14:03:12;10.70;99.90
1702;DHT22;848;48.354;10.064;2023-03-12T14:05:47;10.70;99.90
1702;DHT22;848;48.354;10.064;2023-03-12T14:08:32;10.80;99.90
1702;DHT22;848;48.354;10.064;2023-03-12T14:11:23;10.80;99.90
1702;DHT22;848;48.354;10.064;2023-03-12T14:14:18;11.10;99.90
1702;DHT22;848;48.354;10.064;2023-03-12T14:16:51;11.00;99.90
1702;DHT22;848;48.354;10.064;2023-03-12T14:19:23;11.20;99.90
1702;DHT22;848;48.354;10.064;2023-03-12T14:21:53;11.30;99.90
1702;DHT22;848;48.354;10.064;2023-03-12T14:24:26;11.40;99.90
1702;DHT22;848;48.354;10.064;2023-03-12T14:26:54;11.40;99.90
1702;DHT22;848;48.354;10.064;2023-03-12T14:29:26;11.30;99.90
1702;DHT22;848;48.354;10.064;2023-03-12T14:31:55;11.30;99.90
1702;DHT22;848;48.354;10.064;2023-03-12T14:34:26;11.10;99.90
1702;DHT22;848;48.354;10.064;2023-03-12T14:36:58;11.10;99.90
1702;DHT22;848;48.354;10.064;2023-03-12T14:39:30;11.10;99.90
1702;DHT22;848;48.354;10.064;2023-03-12T14:41:59;11.20;99.90
1702;DHT22;848;48.354;10.064;2023-03-12T14:44:30;11.20;99.90
1702;DHT22;848;48.354;10.064;2023-03-12T14:46:59;11.20;99.90
1702;DHT22;848;48.354;10.064;2023-03-12T14:49:29;11.20;99.90
1702;DHT22;848;48.354;10.064;2023-03-12T14:51:57;11.20;99.90
1702;DHT22;848;48.354;10.064;2023-03-12T14:54:26;11.20;99.90
1702;DHT22;848;48.354;10.064;2023-03-12T14:56:53;11.20;99.90
1702;DHT22;848;48.354;10.064;2023-03-12T14:59:26;11.10;99.90
1702;DHT22;848;48.354;10.064;2023-03-12T15:01:58;11.00;99.90
1702;DHT22;848;48.354;10.064;2023-03-12T15:04:25;10.80;99.90
1702;DHT22;848;48.354;10.064;2023-03-12T15:06:56;10.80;99.90
1702;DHT22;848;48.354;10.064;2023-03-12T15:09:27;10.70;99.90
1702;DHT22;848;48.354;10.064;2023-03-12T15:11:56;10.70;99.90
1702;DHT22;848;48.354;10.064;2023-03-12T15:14:26;10.70;99.90
1702;DHT22;848;48.354;10.064;2023-03-12T15:16:54;10.80;99.90
1702;DHT22;848;48.354;10.064;2023-03-12T15:19:27;10.90;99.90
1702;DHT22;848;48.354;10.064;2023-03-12T15:21:58;10.90;99.90
1702;DHT22;848;48.354;10.064;2023-03-12T15:24:25;11.00;99.90
1702;DHT22;848;48.354;10.064;2023-03-12T15:26:54;11.10;99.90
1702;DHT22;848;48.354;10.064;2023-03-12T15:29:23;11.00;99.90
1702;DHT22;848;48.354;10.064;2023-03-12T15:31:53;11.00;99.90
1702;DHT22;848;48.354;10.064;2023-03-12T15:34:30;11.00;99.90
1702;DHT22;848;48.354;10.064;2023-03-12T15:37:00;11.00;99.90
1702;DHT22;848;48.354;10.064;2023-03-12T15:39:29;10.90;99.90
1702;DHT22;848;48.354;10.064;2023-03-12T15:42:00;10.80;99.90
1702;DHT22;848;48.354;10.064;2023-03-12T15:44:28;10.60;99.90
1702;DHT22;848;48.354;10.064;2023-03-12T15:47:02;10.50;99.90
1702;DHT22;848;48.354;10.064;2023-03-12T15:49:33;10.50;99.90
1702;DHT22;848;48.354;10.064;2023-03-12T15:52:05;10.40;99.90
1702;DHT22;848;48.354;10.064;2023-03-12T15:54:33;10.40;99.90
1702;DHT22;848;48.354;10.064;2023-03-12T15:57:18;10.50;99.90
1702;DHT22;848;48.354;10.064;2023-03-12T15:59:51;10.50;99.90
1702;DHT22;848;48.354;10.064;2023-03-12T16:02:34;10.60;99.90
1702;DHT22;848;48.354;10.064;2023-03-12T16:05:02;10.60;99.90
1702;DHT22;848;48.354;10.064;2023-03-12T16:07:30;10.70;99.90
1702;DHT22;848;48.354;10.064;2023-03-12T16:09:58;10.80;99.90
1702;DHT22;848;48.354;10.064;2023-03-12T16:12:25;10.80;99.90
1702;DHT22;848;48.354;10.064;2023-03-12T16:14:52;10.80;99.90
1702;DHT22;848;48.354;10.064;2023-03-12T16:17:20;10.80;99.90
1702;DHT22;848;48.354;10.064;2023-03-12T16:19:48;10.80;99.90
1702;DHT22;848;48.354;10.064;2023-03-12T16:22:15;10.80;99.90
1702;DHT22;848;48.354;10.064;2023-03-12T16:24:43;10.80;99.90
1702;DHT22;848;48.354;10.064;2023-03-12T16:27:14;10.80;99.90
1702;DHT22;848;48.354;10.064;2023-03-12T16:29:41;10.80;99.90
1702;DHT22;848;48.354;10.064;2023-03-12T16:32:10;10.70;99.90
1702;DHT22;848;48.354;10.064;2023-03-12T16:34:38;10.70;99.90
1702;DHT22;848;48.354;10.064;2023-03-12T16:37:07;10.70;99.90